sensor_id;sensor_type;location;lat;lon;timestamp;pressure;altitude;pressure_sealevel;temperature;humidity
53041;BME280;39326;42.650;23.248;2023-04-20T00:00:54;92202.91;;;8.13;66.52
53041;BME280;39326;42.650;23.248;2023-04-20T00:03:21;92210.50;;;8.11;66.38
53041;BME280;39326;42.650;23.248;2023-04-20T00:05:46;92200.25;;;8.09;66.11
53041;BME280;39326;42.650;23.248;2023-04-20T00:08:15;92197.25;;;8.25;66.55
53041;BME280;39326;42.650;23.248;2023-04-20T00:10:43;92202.97;;;8.31;65.80
53041;BME280;39326;42.650;23.248;2023-04-20T00:13:08;92201.81;;;8.32;65.63
53041;BME280;39326;42.650;23.248;2023-04-20T00:15:34;92207.19;;;8.39;65.76
53041;BME280;39326;42.650;23.248;2023-04-20T00:17:59;92201.09;;;8.38;65.05
53041;BME280;39326;42.650;23.248;2023-04-20T00:20:25;92198.81;;;8.33;65.22
53041;BME280;39326;42.650;23.248;2023-04-20T00:22:51;92190.41;;;8.17;66.53
53041;BME280;39326;42.650;23.248;2023-04-20T00:25:16;92190.78;;;8.19;66.52
53041;BME280;39326;42.650;23.248;2023-04-20T00:27:42;92193.06;;;8.13;66.50
53041;BME280;39326;42.650;23.248;2023-04-20T00:30:09;92192.69;;;8.18;66.07
53041;BME280;39326;42.650;23.248;2023-04-20T00:32:34;92186.97;;;8.13;67.03
53041;BME280;39326;42.650;23.248;2023-04-20T00:35:00;92187.38;;;8.15;66.85
53041;BME280;39326;42.650;23.248;2023-04-20T00:37:25;92179.03;;;8.16;66.62
53041;BME280;39326;42.650;23.248;2023-04-20T00:39:51;92187.41;;;8.26;66.62
53041;BME280;39326;42.650;23.248;2023-04-20T00:42:17;92183.97;;;8.22;66.57
53041;BME280;39326;42.650;23.248;2023-04-20T00:44:42;92180.19;;;8.23;66.90
53041;BME280;39326;42.650;23.248;2023-04-20T00:47:07;92183.97;;;8.18;67.43
53041;BME280;39326;42.650;23.248;2023-04-20T00:49:33;92180.56;;;8.14;67.21
53041;BME280;39326;42.650;23.248;2023-04-20T00:51:59;92183.97;;;8.14;67.78
53041;BME280;39326;42.650;23.248;2023-04-20T00:54:26;92176.00;;;8.14;68.19
53041;BME280;39326;42.650;23.248;2023-04-20T00:56:53;92174.13;;;8.29;67.52
53041;BME280;39326;42.650;23.248;2023-04-20T00:59:21;92182.06;;;8.18;68.97
53041;BME280;39326;42.650;23.248;2023-04-20T01:01:46;92169.94;;;8.21;68.63
53041;BME280;39326;42.650;23.248;2023-04-20T01:04:12;92175.25;;;8.21;69.42
53041;BME280;39326;42.650;23.248;2023-04-20T01:06:37;92177.13;;;8.17;69.47
53041;BME280;39326;42.650;23.248;2023-04-20T01:09:03;92169.91;;;8.10;69.76
53041;BME280;39326;42.650;23.248;2023-04-20T01:11:28;92177.06;;;7.88;70.74
53041;BME280;39326;42.650;23.248;2023-04-20T01:13:54;92179.72;;;7.92;71.07
53041;BME280;39326;42.650;23.248;2023-04-20T01:16:20;92172.06;;;7.73;71.69
53041;BME280;39326;42.650;23.248;2023-04-20T01:18:48;92171.72;;;7.81;71.22
53041;BME280;39326;42.650;23.248;2023-04-20T01:21:16;92177.41;;;7.87;71.31
53041;BME280;39326;42.650;23.248;2023-04-20T01:23:42;92174.00;;;7.86;71.59
53041;BME280;39326;42.650;23.248;2023-04-20T01:26:11;92180.09;;;7.83;71.08
53041;BME280;39326;42.650;23.248;2023-04-20T01:28:37;92172.44;;;7.75;71.10
53041;BME280;39326;42.650;23.248;2023-04-20T01:31:03;92175.88;;;7.79;71.25
53041;BME280;39326;42.650;23.248;2023-04-20T01:33:29;92181.53;;;7.66;71.99
53041;BME280;39326;42.650;23.248;2023-04-20T01:35:55;92177.44;;;7.83;71.04
53041;BME280;39326;42.650;23.248;2023-04-20T01:38:21;92178.91;;;7.74;71.84
53041;BME280;39326;42.650;23.248;2023-04-20T01:40:47;92175.50;;;7.77;71.86
53041;BME280;39326;42.650;23.248;2023-04-20T01:43:15;92174.72;;;7.69;71.39
53041;BME280;39326;42.650;23.248;2023-04-20T01:45:41;92167.94;;;7.82;70.79
53041;BME280;39326;42.650;23.248;2023-04-20T01:48:07;92158.44;;;7.78;71.54
53041;BME280;39326;42.650;23.248;2023-04-20T01:50:32;92154.28;;;7.84;70.89
53041;BME280;39326;42.650;23.248;2023-04-20T01:52:57;92151.28;;;7.96;69.64
53041;BME280;39326;42.650;23.248;2023-04-20T01:55:23;92146.31;;;7.87;69.66
53041;BME280;39326;42.650;23.248;2023-04-20T01:57:48;92147.13;;;7.95;69.15
53041;BME280;39326;42.650;23.248;2023-04-20T02:00:15;92137.63;;;7.90;68.96
53041;BME280;39326;42.650;23.248;2023-04-20T02:02:41;92146.34;;;7.91;68.77
53041;BME280;39326;42.650;23.248;2023-04-20T02:05:06;92136.81;;;7.79;70.35
53041;BME280;39326;42.650;23.248;2023-04-20T02:07:32;92141.41;;;7.82;69.44
53041;BME280;39326;42.650;23.248;2023-04-20T02:09:57;92142.50;;;7.71;70.25
53041;BME280;39326;42.650;23.248;2023-04-20T02:12:23;92140.22;;;7.69;70.76
53041;BME280;39326;42.650;23.248;2023-04-20T02:14:48;92143.63;;;7.70;69.62
53041;BME280;39326;42.650;23.248;2023-04-20T02:17:14;92141.34;;;7.72;69.14
53041;BME280;39326;42.650;23.248;2023-04-20T02:19:39;92143.66;;;7.87;68.28
53041;BME280;39326;42.650;23.248;2023-04-20T02:22:05;92151.22;;;7.71;68.77
53041;BME280;39326;42.650;23.248;2023-04-20T02:24:31;92145.53;;;7.69;68.49
53041;BME280;39326;42.650;23.248;2023-04-20T02:26:56;92131.47;;;7.69;68.33
53041;BME280;39326;42.650;23.248;2023-04-20T02:29:23;92147.41;;;7.69;68.45
53041;BME280;39326;42.650;23.248;2023-04-20T02:31:48;92153.13;;;7.71;67.41
53041;BME280;39326;42.650;23.248;2023-04-20T02:34:13;92146.69;;;7.79;67.63
53041;BME280;39326;42.650;23.248;2023-04-20T02:36:39;92151.22;;;7.71;67.75
53041;BME280;39326;42.650;23.248;2023-04-20T02:39:05;92144.81;;;7.83;67.20
53041;BME280;39326;42.650;23.248;2023-04-20T02:41:30;92148.97;;;7.80;67.25
53041;BME280;39326;42.650;23.248;2023-04-20T02:43:56;92145.19;;;7.85;66.93
53041;BME280;39326;42.650;23.248;2023-04-20T02:46:21;92152.03;;;7.89;67.26
53041;BME280;39326;42.650;23.248;2023-04-20T02:48:46;92147.47;;;7.86;67.97
53041;BME280;39326;42.650;23.248;2023-04-20T02:51:12;92155.78;;;7.81;67.16
53041;BME280;39326;42.650;23.248;2023-04-20T02:53:37;92150.09;;;7.76;68.05
53041;BME280;39326;42.650;23.248;2023-04-20T02:56:03;92150.47;;;7.81;68.45
53041;BME280;39326;42.650;23.248;2023-04-20T02:58:28;92145.97;;;7.92;68.36
53041;BME280;39326;42.650;23.248;2023-04-20T03:01:00;92152.06;;;7.97;68.39
53041;BME280;39326;42.650;23.248;2023-04-20T03:03:27;92146.38;;;8.02;67.38
53041;BME280;39326;42.650;23.248;2023-04-20T03:05:53;92156.16;;;7.80;68.00
53041;BME280;39326;42.650;23.248;2023-04-20T03:08:18;92149.38;;;7.82;68.06
53041;BME280;39326;42.650;23.248;2023-04-20T03:10:44;92148.59;;;7.82;68.44
53041;BME280;39326;42.650;23.248;2023-04-20T03:13:09;92147.09;;;7.84;68.56
53041;BME280;39326;42.650;23.248;2023-04-20T03:15:35;92142.91;;;7.76;68.96
53041;BME280;39326;42.650;23.248;2023-04-20T03:18:00;92139.47;;;7.79;68.64
53041;BME280;39326;42.650;23.248;2023-04-20T03:20:26;92151.63;;;7.84;68.61
53041;BME280;39326;42.650;23.248;2023-04-20T03:22:51;92152.03;;;7.82;68.23
53041;BME280;39326;42.650;23.248;2023-04-20T03:25:17;92146.72;;;7.82;68.08
53041;BME280;39326;42.650;23.248;2023-04-20T03:27:45;92142.53;;;7.85;67.31
53041;BME280;39326;42.650;23.248;2023-04-20T03:30:11;92140.63;;;7.85;67.19
53041;BME280;39326;42.650;23.248;2023-04-20T03:32:36;92146.69;;;7.86;67.99
53041;BME280;39326;42.650;23.248;2023-04-20T03:35:03;92147.47;;;7.86;67.28
53041;BME280;39326;42.650;23.248;2023-04-20T03:37:29;92153.13;;;7.81;68.40
53041;BME280;39326;42.650;23.248;2023-04-20T03:39:54;92148.59;;;7.82;67.55
53041;BME280;39326;42.650;23.248;2023-04-20T03:42:20;92150.91;;;7.90;66.97
53041;BME280;39326;42.650;23.248;2023-04-20T03:44:45;92151.25;;;7.85;67.26
53041;BME280;39326;42.650;23.248;2023-04-20T03:47:11;92162.63;;;7.86;68.13
53041;BME280;39326;42.650;23.248;2023-04-20T03:49:37;92159.19;;;7.71;68.79
53041;BME280;39326;42.650;23.248;2023-04-20T03:52:03;92157.28;;;7.75;68.56
53041;BME280;39326;42.650;23.248;2023-04-20T03:54:28;92161.84;;;7.71;68.53
53041;BME280;39326;42.650;23.248;2023-04-20T03:56:54;92162.16;;;7.59;69.72
53041;BME280;39326;42.650;23.248;2023-04-20T03:59:19;92147.69;;;7.42;70.12
53041;BME280;39326;42.650;23.248;2023-04-20T04:01:45;92167.03;;;7.50;70.49
53041;BME280;39326;42.650;23.248;2023-04-20T04:04:10;92165.19;;;7.57;70.90
53041;BME280;39326;42.650;23.248;2023-04-20T04:06:36;92162.94;;;7.63;70.23
53041;BME280;39326;42.650;23.248;2023-04-20T04:09:01;92159.91;;;7.64;70.26
53041;BME280;39326;42.650;23.248;2023-04-20T04:11:26;92166.75;;;7.69;70.11
53041;BME280;39326;42.650;23.248;2023-04-20T04:13:54;92168.28;;;7.74;69.80
53041;BME280;39326;42.650;23.248;2023-04-20T04:16:20;92168.72;;;7.90;69.61
53041;BME280;39326;42.650;23.248;2023-04-20T04:18:45;92164.88;;;7.80;69.63
53041;BME280;39326;42.650;23.248;2023-04-20T04:21:11;92166.00;;;7.72;69.54
53041;BME280;39326;42.650;23.248;2023-04-20T04:23:36;92167.53;;;7.70;70.08
53041;BME280;39326;42.650;23.248;2023-04-20T04:26:02;92166.75;;;7.73;69.75
53041;BME280;39326;42.650;23.248;2023-04-20T04:28:29;92171.69;;;7.74;70.27
53041;BME280;39326;42.650;23.248;2023-04-20T04:30:56;92169.78;;;7.75;70.27
53041;BME280;39326;42.650;23.248;2023-04-20T04:33:22;92176.66;;;7.86;69.71
53041;BME280;39326;42.650;23.248;2023-04-20T04:35:47;92174.34;;;7.74;70.33
53041;BME280;39326;42.650;23.248;2023-04-20T04:38:14;92172.47;;;7.78;70.22
53041;BME280;39326;42.650;23.248;2023-04-20T04:40:39;92175.84;;;7.75;70.36
53041;BME280;39326;42.650;23.248;2023-04-20T04:43:07;92175.09;;;7.71;71.04
53041;BME280;39326;42.650;23.248;2023-04-20T04:45:37;92181.56;;;7.81;69.86
53041;BME280;39326;42.650;23.248;2023-04-20T04:48:04;92179.66;;;7.81;70.26
53041;BME280;39326;42.650;23.248;2023-04-20T04:50:29;92193.69;;;7.71;70.94
53041;BME280;39326;42.650;23.248;2023-04-20T04:52:55;92184.56;;;7.69;71.10
53041;BME280;39326;42.650;23.248;2023-04-20T04:55:21;92192.94;;;7.78;71.08
53041;BME280;39326;42.650;23.248;2023-04-20T04:57:46;92190.28;;;7.78;70.10
53041;BME280;39326;42.650;23.248;2023-04-20T05:00:12;92199.78;;;7.79;70.87
53041;BME280;39326;42.650;23.248;2023-04-20T05:02:38;92186.13;;;7.80;70.37
53041;BME280;39326;42.650;23.248;2023-04-20T05:05:04;92197.88;;;7.79;70.58
53041;BME280;39326;42.650;23.248;2023-04-20T05:07:29;92191.78;;;7.75;71.00
53041;BME280;39326;42.650;23.248;2023-04-20T05:09:55;92194.50;;;7.82;70.57
53041;BME280;39326;42.650;23.248;2023-04-20T05:12:20;92185.78;;;7.82;70.27
53041;BME280;39326;42.650;23.248;2023-04-20T05:14:46;92198.22;;;7.71;70.58
53041;BME280;39326;42.650;23.248;2023-04-20T05:17:11;92198.97;;;7.64;71.58
53041;BME280;39326;42.650;23.248;2023-04-20T05:19:36;92198.19;;;7.67;71.17
53041;BME280;39326;42.650;23.248;2023-04-20T05:22:02;92197.47;;;7.70;71.36
53041;BME280;39326;42.650;23.248;2023-04-20T05:24:27;92188.41;;;7.85;71.12
53041;BME280;39326;42.650;23.248;2023-04-20T05:26:53;92201.63;;;7.64;72.17
53041;BME280;39326;42.650;23.248;2023-04-20T05:29:19;92197.00;;;7.54;72.61
53041;BME280;39326;42.650;23.248;2023-04-20T05:31:44;92211.44;;;7.60;72.32
53041;BME280;39326;42.650;23.248;2023-04-20T05:34:10;92204.69;;;7.73;71.53
53041;BME280;39326;42.650;23.248;2023-04-20T05:36:35;92205.88;;;7.86;71.55
53041;BME280;39326;42.650;23.248;2023-04-20T05:39:01;92210.41;;;7.82;71.31
53041;BME280;39326;42.650;23.248;2023-04-20T05:41:27;92209.28;;;7.83;71.32
53041;BME280;39326;42.650;23.248;2023-04-20T05:43:53;92207.00;;;7.82;71.25
53041;BME280;39326;42.650;23.248;2023-04-20T05:46:19;92215.75;;;7.89;71.42
53041;BME280;39326;42.650;23.248;2023-04-20T05:48:45;92211.19;;;7.90;71.47
53041;BME280;39326;42.650;23.248;2023-04-20T05:51:11;92213.91;;;8.01;71.91
53041;BME280;39326;42.650;23.248;2023-04-20T05:53:36;92214.63;;;7.94;72.31
53041;BME280;39326;42.650;23.248;2023-04-20T05:56:01;92218.06;;;7.95;73.01
53041;BME280;39326;42.650;23.248;2023-04-20T05:58:27;92208.88;;;7.81;74.66
53041;BME280;39326;42.650;23.248;2023-04-20T06:00:53;92208.53;;;7.83;74.87
53041;BME280;39326;42.650;23.248;2023-04-20T06:03:19;92210.03;;;7.84;75.20
53041;BME280;39326;42.650;23.248;2023-04-20T06:05:44;92207.75;;;7.82;75.52
53041;BME280;39326;42.650;23.248;2023-04-20T06:08:10;92213.81;;;7.79;76.13
53041;BME280;39326;42.650;23.248;2023-04-20T06:10:36;92212.25;;;7.71;76.95
53041;BME280;39326;42.650;23.248;2023-04-20T06:13:01;92216.88;;;7.88;75.52
53041;BME280;39326;42.650;23.248;2023-04-20T06:15:27;92213.84;;;7.86;76.70
53041;BME280;39326;42.650;23.248;2023-04-20T06:17:52;92213.44;;;7.84;76.99
53041;BME280;39326;42.650;23.248;2023-04-20T06:20:18;92210.44;;;7.93;76.80
53041;BME280;39326;42.650;23.248;2023-04-20T06:22:44;92213.88;;;7.97;76.14
53041;BME280;39326;42.650;23.248;2023-04-20T06:25:10;92209.31;;;7.90;75.89
53041;BME280;39326;42.650;23.248;2023-04-20T06:27:36;92208.88;;;7.81;76.75
53041;BME280;39326;42.650;23.248;2023-04-20T06:30:02;92219.47;;;7.74;75.82
53041;BME280;39326;42.650;23.248;2023-04-20T06:32:28;92211.94;;;7.83;75.57
53041;BME280;39326;42.650;23.248;2023-04-20T06:34:54;92219.13;;;7.83;75.09
53041;BME280;39326;42.650;23.248;2023-04-20T06:37:19;92214.63;;;7.90;75.09
53041;BME280;39326;42.650;23.248;2023-04-20T06:39:45;92225.22;;;7.94;74.46
53041;BME280;39326;42.650;23.248;2023-04-20T06:42:10;92219.25;;;8.15;73.88
53041;BME280;39326;42.650;23.248;2023-04-20T06:44:36;92223.06;;;8.14;73.93
53041;BME280;39326;42.650;23.248;2023-04-20T06:47:01;92229.91;;;8.22;73.27
53041;BME280;39326;42.650;23.248;2023-04-20T06:49:26;92220.38;;;8.17;72.78
53041;BME280;39326;42.650;23.248;2023-04-20T06:51:52;92236.69;;;8.12;73.65
53041;BME280;39326;42.650;23.248;2023-04-20T06:54:17;92237.06;;;8.11;74.29
53041;BME280;39326;42.650;23.248;2023-04-20T06:56:42;92238.59;;;8.08;75.01
53041;BME280;39326;42.650;23.248;2023-04-20T06:59:08;92241.25;;;8.08;75.08
53041;BME280;39326;42.650;23.248;2023-04-20T07:01:33;92238.22;;;8.13;75.23
53041;BME280;39326;42.650;23.248;2023-04-20T07:03:59;92238.94;;;8.03;76.69
53041;BME280;39326;42.650;23.248;2023-04-20T07:06:24;92243.50;;;8.10;76.67
53041;BME280;39326;42.650;23.248;2023-04-20T07:08:52;92242.38;;;8.07;75.47
53041;BME280;39326;42.650;23.248;2023-04-20T07:11:17;92241.22;;;8.01;76.15
53041;BME280;39326;42.650;23.248;2023-04-20T07:13:43;92244.97;;;7.93;76.07
53041;BME280;39326;42.650;23.248;2023-04-20T07:16:08;92245.72;;;7.93;76.71
53041;BME280;39326;42.650;23.248;2023-04-20T07:18:34;92246.50;;;7.98;75.54
53041;BME280;39326;42.650;23.248;2023-04-20T07:21:00;92256.75;;;7.96;75.80
53041;BME280;39326;42.650;23.248;2023-04-20T07:23:26;92252.56;;;7.98;75.49
53041;BME280;39326;42.650;23.248;2023-04-20T07:25:51;92247.19;;;7.87;76.16
53041;BME280;39326;42.650;23.248;2023-04-20T07:28:16;92250.31;;;8.04;74.84
53041;BME280;39326;42.650;23.248;2023-04-20T07:30:42;92245.75;;;8.04;75.39
53041;BME280;39326;42.650;23.248;2023-04-20T07:33:07;92251.13;;;8.18;74.73
53041;BME280;39326;42.650;23.248;2023-04-20T07:35:33;92251.19;;;8.36;75.49
53041;BME280;39326;42.650;23.248;2023-04-20T07:37:58;92249.38;;;8.55;74.71
53041;BME280;39326;42.650;23.248;2023-04-20T07:40:24;92241.41;;;8.72;74.09
53041;BME280;39326;42.650;23.248;2023-04-20T07:42:49;92248.25;;;8.88;72.60
53041;BME280;39326;42.650;23.248;2023-04-20T07:45:15;92228.88;;;8.94;73.21
53041;BME280;39326;42.650;23.248;2023-04-20T07:47:41;92239.91;;;9.28;72.36
53041;BME280;39326;42.650;23.248;2023-04-20T07:50:09;92234.19;;;9.37;72.06
53041;BME280;39326;42.650;23.248;2023-04-20T07:52:35;92236.84;;;9.48;71.43
53041;BME280;39326;42.650;23.248;2023-04-20T07:55:00;92239.88;;;9.64;70.69
53041;BME280;39326;42.650;23.248;2023-04-20T07:57:27;92236.84;;;9.51;67.87
53041;BME280;39326;42.650;23.248;2023-04-20T07:59:52;92236.44;;;9.57;67.43
53041;BME280;39326;42.650;23.248;2023-04-20T08:02:18;92238.34;;;9.60;67.21
53041;BME280;39326;42.650;23.248;2023-04-20T08:04:43;92240.63;;;9.61;67.27
53041;BME280;39326;42.650;23.248;2023-04-20T08:07:09;92248.19;;;9.80;67.89
53041;BME280;39326;42.650;23.248;2023-04-20T08:09:35;92235.97;;;9.94;66.89
53041;BME280;39326;42.650;23.248;2023-04-20T08:12:01;92248.16;;;9.91;67.04
53041;BME280;39326;42.650;23.248;2023-04-20T08:14:26;92240.16;;;10.05;66.38
53041;BME280;39326;42.650;23.248;2023-04-20T08:16:52;92244.72;;;10.08;66.07
53041;BME280;39326;42.650;23.248;2023-04-20T08:19:17;92250.03;;;10.12;65.37
53041;BME280;39326;42.650;23.248;2023-04-20T08:21:43;92248.19;;;9.80;65.80
53041;BME280;39326;42.650;23.248;2023-04-20T08:24:08;92258.06;;;9.91;65.93
53041;BME280;39326;42.650;23.248;2023-04-20T08:26:34;92255.78;;;9.89;66.09
53041;BME280;39326;42.650;23.248;2023-04-20T08:29:00;92250.47;;;9.82;66.78
53041;BME280;39326;42.650;23.248;2023-04-20T08:31:26;92247.81;;;9.86;65.75
53041;BME280;39326;42.650;23.248;2023-04-20T08:33:52;92250.09;;;9.76;65.36
53041;BME280;39326;42.650;23.248;2023-04-20T08:36:18;92258.47;;;9.75;65.97
53041;BME280;39326;42.650;23.248;2023-04-20T08:38:43;92260.78;;;9.55;65.73
53041;BME280;39326;42.650;23.248;2023-04-20T08:41:09;92249.75;;;9.57;66.03
53041;BME280;39326;42.650;23.248;2023-04-20T08:43:39;92254.69;;;9.62;66.03
53041;BME280;39326;42.650;23.248;2023-04-20T08:46:05;92257.38;;;9.54;67.88
53041;BME280;39326;42.650;23.248;2023-04-20T08:48:34;92256.25;;;9.38;68.90
53041;BME280;39326;42.650;23.248;2023-04-20T08:51:02;92253.19;;;9.50;68.76
53041;BME280;39326;42.650;23.248;2023-04-20T08:53:28;92259.66;;;9.60;68.47
53041;BME280;39326;42.650;23.248;2023-04-20T08:55:54;92259.66;;;9.42;68.32
53041;BME280;39326;42.650;23.248;2023-04-20T08:58:23;92252.06;;;9.47;68.08
53041;BME280;39326;42.650;23.248;2023-04-20T09:00:49;92255.50;;;9.41;67.76
53041;BME280;39326;42.650;23.248;2023-04-20T09:03:14;92257.00;;;9.56;67.82
53041;BME280;39326;42.650;23.248;2023-04-20T09:05:40;92265.00;;;9.42;68.47
53041;BME280;39326;42.650;23.248;2023-04-20T09:08:06;92265.72;;;9.64;67.99
53041;BME280;39326;42.650;23.248;2023-04-20T09:10:41;92260.41;;;9.57;68.41
53041;BME280;39326;42.650;23.248;2023-04-20T09:13:06;92256.19;;;9.73;67.88
53041;BME280;39326;42.650;23.248;2023-04-20T09:15:32;92260.78;;;9.73;67.63
53041;BME280;39326;42.650;23.248;2023-04-20T09:17:57;92256.56;;;9.79;68.48
53041;BME280;39326;42.650;23.248;2023-04-20T09:20:30;92258.03;;;9.94;67.87
53041;BME280;39326;42.650;23.248;2023-04-20T09:23:09;92259.19;;;9.97;67.25
53041;BME280;39326;42.650;23.248;2023-04-20T09:25:35;92258.41;;;10.00;66.57
53041;BME280;39326;42.650;23.248;2023-04-20T09:28:00;92255.41;;;9.87;66.58
53041;BME280;39326;42.650;23.248;2023-04-20T09:30:39;92250.81;;;10.09;66.61
53041;BME280;39326;42.650;23.248;2023-04-20T09:33:06;92248.47;;;10.22;67.06
53041;BME280;39326;42.650;23.248;2023-04-20T09:35:35;92246.47;;;10.44;66.62
53041;BME280;39326;42.650;23.248;2023-04-20T09:38:03;92245.97;;;10.63;64.71
53041;BME280;39326;42.650;23.248;2023-04-20T09:40:28;92251.69;;;10.65;65.17
53041;BME280;39326;42.650;23.248;2023-04-20T09:42:58;92245.88;;;10.81;64.61
53041;BME280;39326;42.650;23.248;2023-04-20T09:45:27;92246.31;;;10.69;64.01
53041;BME280;39326;42.650;23.248;2023-04-20T09:47:53;92241.72;;;10.73;63.07
53041;BME280;39326;42.650;23.248;2023-04-20T09:50:20;92240.19;;;10.79;63.34
53041;BME280;39326;42.650;23.248;2023-04-20T09:52:46;92237.47;;;10.86;63.00
53041;BME280;39326;42.650;23.248;2023-04-20T09:55:15;92242.63;;;11.11;63.21
53041;BME280;39326;42.650;23.248;2023-04-20T09:57:41;92239.59;;;11.09;62.63
53041;BME280;39326;42.650;23.248;2023-04-20T10:00:07;92236.28;;;11.39;62.59
53041;BME280;39326;42.650;23.248;2023-04-20T10:02:37;92238.88;;;11.50;62.80
53041;BME280;39326;42.650;23.248;2023-04-20T10:05:03;92240.03;;;11.49;59.55
53041;BME280;39326;42.650;23.248;2023-04-20T10:07:30;92231.97;;;11.52;60.46
53041;BME280;39326;42.650;23.248;2023-04-20T10:10:14;92242.78;;;11.38;57.92
53041;BME280;39326;42.650;23.248;2023-04-20T10:12:51;92221.06;;;11.36;58.72
53041;BME280;39326;42.650;23.248;2023-04-20T10:15:16;92228.66;;;11.37;59.63
53041;BME280;39326;42.650;23.248;2023-04-20T10:17:42;92232.81;;;11.46;60.67
53041;BME280;39326;42.650;23.248;2023-04-20T10:20:25;92231.53;;;11.61;59.42
53041;BME280;39326;42.650;23.248;2023-04-20T10:22:51;92224.50;;;11.78;59.55
53041;BME280;39326;42.650;23.248;2023-04-20T10:25:20;92221.38;;;11.83;59.56
53041;BME280;39326;42.650;23.248;2023-04-20T10:27:58;92225.38;;;12.02;59.17
53041;BME280;39326;42.650;23.248;2023-04-20T10:30:25;92226.88;;;12.03;59.48
53041;BME280;39326;42.650;23.248;2023-04-20T10:33:11;92231.59;;;12.26;58.01
53041;BME280;39326;42.650;23.248;2023-04-20T10:35:45;92225.78;;;12.00;57.57
53041;BME280;39326;42.650;23.248;2023-04-20T10:38:11;92212.00;;;12.02;58.14
53041;BME280;39326;42.650;23.248;2023-04-20T10:40:37;92213.78;;;12.15;57.47
53041;BME280;39326;42.650;23.248;2023-04-20T10:43:03;92221.19;;;12.35;58.04
53041;BME280;39326;42.650;23.248;2023-04-20T10:45:35;92218.31;;;12.49;56.49
53041;BME280;39326;42.650;23.248;2023-04-20T10:48:08;92219.94;;;12.43;56.83
53041;BME280;39326;42.650;23.248;2023-04-20T10:50:35;92217.44;;;12.29;57.67
53041;BME280;39326;42.650;23.248;2023-04-20T10:53:01;92208.03;;;12.47;57.04
53041;BME280;39326;42.650;23.248;2023-04-20T10:55:27;92217.03;;;12.61;58.52
53041;BME280;39326;42.650;23.248;2023-04-20T10:57:53;92210.91;;;12.60;57.26
53041;BME280;39326;42.650;23.248;2023-04-20T11:00:19;92219.56;;;12.71;57.03
53041;BME280;39326;42.650;23.248;2023-04-20T11:02:53;92216.63;;;12.62;56.73
53041;BME280;39326;42.650;23.248;2023-04-20T11:05:20;92223.03;;;12.72;55.95
53041;BME280;39326;42.650;23.248;2023-04-20T11:07:56;92205.94;;;12.89;56.85
53041;BME280;39326;42.650;23.248;2023-04-20T11:13:01;92205.88;;;13.63;54.71
53041;BME280;39326;42.650;23.248;2023-04-20T11:15:36;92213.16;;;13.63;54.66
53041;BME280;39326;42.650;23.248;2023-04-20T11:18:08;92216.09;;;13.48;52.58
53041;BME280;39326;42.650;23.248;2023-04-20T11:20:34;92209.63;;;13.46;53.71
53041;BME280;39326;42.650;23.248;2023-04-20T11:23:00;92209.81;;;13.35;54.15
53041;BME280;39326;42.650;23.248;2023-04-20T11:25:29;92207.53;;;13.34;51.88
53041;BME280;39326;42.650;23.248;2023-04-20T11:28:04;92203.69;;;13.35;51.58
53041;BME280;39326;42.650;23.248;2023-04-20T11:30:38;92203.34;;;13.32;51.42
53041;BME280;39326;42.650;23.248;2023-04-20T11:33:05;92195.75;;;13.51;51.15
53041;BME280;39326;42.650;23.248;2023-04-20T11:35:35;92193.78;;;13.98;49.69
53041;BME280;39326;42.650;23.248;2023-04-20T11:38:01;92186.41;;;14.42;50.57
53041;BME280;39326;42.650;23.248;2023-04-20T11:40:27;92191.16;;;14.71;50.40
53041;BME280;39326;42.650;23.248;2023-04-20T11:42:52;92189.53;;;15.09;47.55
53041;BME280;39326;42.650;23.248;2023-04-20T11:45:18;92182.63;;;15.41;47.71
53041;BME280;39326;42.650;23.248;2023-04-20T11:47:43;92180.31;;;15.72;47.48
53041;BME280;39326;42.650;23.248;2023-04-20T11:50:09;92180.31;;;15.72;46.15
53041;BME280;39326;42.650;23.248;2023-04-20T11:52:35;92180.22;;;15.30;46.36
53041;BME280;39326;42.650;23.248;2023-04-20T11:55:01;92176.53;;;15.24;45.33
53041;BME280;39326;42.650;23.248;2023-04-20T11:57:26;92178.28;;;15.14;46.25
53041;BME280;39326;42.650;23.248;2023-04-20T11:59:52;92178.22;;;15.02;47.41
53041;BME280;39326;42.650;23.248;2023-04-20T12:02:17;92180.94;;;14.46;47.29
53041;BME280;39326;42.650;23.248;2023-04-20T12:04:43;92173.41;;;14.21;48.09
53041;BME280;39326;42.650;23.248;2023-04-20T12:07:08;92170.06;;;14.17;48.49
53041;BME280;39326;42.650;23.248;2023-04-20T12:09:33;92171.91;;;14.20;48.92
53041;BME280;39326;42.650;23.248;2023-04-20T12:12:04;92170.47;;;14.15;50.60
53041;BME280;39326;42.650;23.248;2023-04-20T12:14:30;92165.88;;;13.96;50.24
53041;BME280;39326;42.650;23.248;2023-04-20T12:16:57;92178.59;;;13.92;50.48
53041;BME280;39326;42.650;23.248;2023-04-20T12:19:23;92174.72;;;13.73;50.97
53041;BME280;39326;42.650;23.248;2023-04-20T12:21:48;92187.44;;;13.45;51.75
53041;BME280;39326;42.650;23.248;2023-04-20T12:24:14;92190.06;;;13.02;53.00
53041;BME280;39326;42.650;23.248;2023-04-20T12:26:39;92181.94;;;12.82;55.36
53041;BME280;39326;42.650;23.248;2023-04-20T12:29:04;92185.16;;;12.73;56.74
53041;BME280;39326;42.650;23.248;2023-04-20T12:31:31;92179.41;;;12.71;57.34
53041;BME280;39326;42.650;23.248;2023-04-20T12:33:56;92179.53;;;12.34;58.26
53041;BME280;39326;42.650;23.248;2023-04-20T12:36:22;92173.56;;;12.53;57.60
53041;BME280;39326;42.650;23.248;2023-04-20T12:38:49;92176.81;;;12.64;57.13
53041;BME280;39326;42.650;23.248;2023-04-20T12:41:16;92170.19;;;12.76;57.53
53041;BME280;39326;42.650;23.248;2023-04-20T12:43:41;92174.06;;;12.71;57.25
53041;BME280;39326;42.650;23.248;2023-04-20T12:46:07;92165.09;;;12.85;57.69
53041;BME280;39326;42.650;23.248;2023-04-20T12:48:32;92159.81;;;13.05;57.91
53041;BME280;39326;42.650;23.248;2023-04-20T12:50:57;92163.25;;;13.29;57.27
53041;BME280;39326;42.650;23.248;2023-04-20T12:53:23;92153.88;;;13.17;56.54
53041;BME280;39326;42.650;23.248;2023-04-20T12:55:48;92159.41;;;13.30;56.06